Time;durP1;ratioP1;P1;durP2;ratioP2;P2;SDS_P1;SDS_P2;PMS_P1;PMS_P2;Temp;Humidity;BMP_temperature;BMP_pressure;BME280_temperature;BME280_humidity;BME280_pressure;Samples;Min_cycle;Max_cycle;Signal;HPM_P1;HPM_P2
2022/01/11 00:00:48;;;;;;;71.27;33.00;;;;;;;-1.71;100.00;102997.06;5059160;28;20037;-64
2022/01/11 00:03:17;;;;;;;74.67;34.80;;;;;;;-1.70;100.00;103001.44;5058624;28;20028;-65
2022/01/11 00:06:08;;;;;;;83.10;34.27;;;;;;;-1.71;100.00;103002.13;5055851;28;20028;-64
2022/01/11 00:08:35;;;;;;;78.53;33.55;;;;;;;-1.71;100.00;103007.22;5059272;28;20025;-65
2022/01/11 00:11:04;;;;;;;73.53;34.03;;;;;;;-1.70;100.00;103013.22;5053443;28;20041;-64
2022/01/11 00:13:41;;;;;;;76.63;34.17;;;;;;;-1.70;100.00;103018.31;5063035;28;20047;-65
2022/01/11 00:16:09;;;;;;;70.33;33.53;;;;;;;-1.67;100.00;103015.22;5052456;28;20427;-65
2022/01/11 00:18:35;;;;;;;69.10;33.10;;;;;;;-1.63;100.00;103025.94;5060790;28;20028;-64
2022/01/11 00:21:01;;;;;;;69.77;33.40;;;;;;;-1.66;100.00;103034.84;5058759;28;20066;-64
2022/01/11 00:25:54;;;;;;;65.00;31.47;;;;;;;-1.64;100.00;103035.94;5060318;28;20041;-64
2022/01/11 00:28:21;;;;;;;65.80;31.57;;;;;;;-1.66;100.00;103028.13;5062158;28;20036;-64
2022/01/11 00:30:49;;;;;;;72.73;30.57;;;;;;;-1.65;100.00;103036.63;5057077;28;20028;-64
2022/01/11 00:33:19;;;;;;;71.70;32.77;;;;;;;-1.66;100.00;103039.91;5060202;28;20021;-64
2022/01/11 00:35:56;;;;;;;69.60;29.63;;;;;;;-1.67;100.00;103044.09;5064163;28;20028;-64
2022/01/11 00:38:22;;;;;;;63.90;30.33;;;;;;;-1.65;100.00;103040.09;5058283;28;20306;-64
2022/01/11 00:40:50;;;;;;;66.30;30.70;;;;;;;-1.64;100.00;103043.56;5062351;28;20047;-64
2022/01/11 00:43:20;;;;;;;64.40;30.13;;;;;;;-1.61;100.00;103046.44;5057392;28;20060;-64
2022/01/11 00:45:46;;;;;;;68.45;31.10;;;;;;;-1.64;100.00;103038.47;5064911;28;20029;-64
2022/01/11 00:48:12;;;;;;;57.57;28.67;;;;;;;-1.61;100.00;103028.66;5056985;28;20060;-64
2022/01/11 00:50:38;;;;;;;65.73;29.30;;;;;;;-1.63;100.00;103019.94;5063924;28;20074;-64
2022/01/11 00:53:04;;;;;;;68.60;30.93;;;;;;;-1.68;100.00;103027.03;5056286;28;20074;-64
2022/01/11 00:55:31;;;;;;;64.07;29.87;;;;;;;-1.69;100.00;103013.41;5061930;28;20035;-65
2022/01/11 00:57:56;;;;;;;66.30;30.83;;;;;;;-1.70;100.00;103023.41;5059688;28;20096;-65
2022/01/11 01:00:21;;;;;;;69.97;31.67;;;;;;;-1.70;100.00;103031.94;5061560;28;20521;-64
2022/01/11 01:02:47;;;;;;;68.37;30.23;;;;;;;-1.73;100.00;103028.13;5058366;28;20024;-64
2022/01/11 01:05:17;;;;;;;71.17;30.50;;;;;;;-1.72;100.00;103038.47;5059922;28;20055;-63
2022/01/11 01:07:42;;;;;;;68.30;29.90;;;;;;;-1.73;100.00;103029.06;5063321;28;20100;-64
2022/01/11 01:10:16;;;;;;;69.97;31.67;;;;;;;-1.72;100.00;103035.94;5058220;28;20135;-64
2022/01/11 01:12:41;;;;;;;75.17;31.90;;;;;;;-1.69;100.00;103040.47;5061226;28;20389;-64
2022/01/11 01:15:07;;;;;;;84.77;33.73;;;;;;;-1.69;100.00;103038.84;5057090;28;20020;-64
2022/01/11 01:17:32;;;;;;;73.07;31.73;;;;;;;-1.68;100.00;103039.75;5066387;28;20026;-64
2022/01/11 01:19:58;;;;;;;69.13;30.10;;;;;;;-1.69;100.00;103036.28;5054871;28;20025;-65
2022/01/11 01:22:23;;;;;;;83.13;34.50;;;;;;;-1.68;100.00;103034.66;5065521;28;20392;-64
2022/01/11 01:24:48;;;;;;;73.80;31.70;;;;;;;-1.68;100.00;103027.03;5058160;28;20485;-64
2022/01/11 01:27:15;;;;;;;70.33;31.50;;;;;;;-1.70;100.00;103029.41;5062807;28;20025;-64
2022/01/11 01:29:41;;;;;;;75.90;33.50;;;;;;;-1.69;100.00;103035.38;5059106;28;20020;-64
2022/01/11 01:32:09;;;;;;;74.93;31.93;;;;;;;-1.71;100.00;103037.75;5061066;28;20021;-64
2022/01/11 01:34:36;;;;;;;82.27;32.97;;;;;;;-1.72;100.00;103048.66;5057104;28;20030;-64
2022/01/11 01:37:01;;;;;;;83.43;32.53;;;;;;;-1.73;100.00;103045.94;5059606;28;20025;-65
2022/01/11 01:39:27;;;;;;;72.20;31.03;;;;;;;-1.75;100.00;103044.84;5061510;28;20077;-64
2022/01/11 01:41:53;;;;;;;83.77;33.03;;;;;;;-1.74;100.00;103039.00;5058981;28;20419;-64
2022/01/11 01:44:19;;;;;;;82.90;33.57;;;;;;;-1.78;100.00;103040.28;5060091;28;20036;-64
2022/01/11 01:46:44;;;;;;;89.60;33.20;;;;;;;-1.81;100.00;103037.38;5058306;28;20028;-64
2022/01/11 01:49:16;;;;;;;70.80;31.57;;;;;;;-1.77;100.00;103042.13;5057846;28;20032;-65
2022/01/11 01:51:42;;;;;;;84.23;34.10;;;;;;;-1.77;100.00;103048.81;5056622;28;20025;-64
2022/01/11 01:54:08;;;;;;;77.73;32.83;;;;;;;-1.74;100.00;103037.38;5063078;28;20025;-64
2022/01/11 01:56:34;;;;;;;80.53;34.13;;;;;;;-1.77;100.00;103046.28;5055693;28;20023;-64
2022/01/11 01:58:59;;;;;;;86.90;33.60;;;;;;;-1.81;100.00;103043.38;5060799;28;20032;-64
2022/01/11 02:01:26;;;;;;;81.07;32.57;;;;;;;-1.81;100.00;103039.94;5057848;28;20049;-64
2022/01/11 02:03:52;;;;;;;79.30;32.00;;;;;;;-1.82;100.00;103054.25;5062950;28;20033;-64
2022/01/11 02:06:19;;;;;;;78.63;32.47;;;;;;;-1.77;100.00;103057.38;5055433;28;20078;-64
2022/01/11 02:08:46;;;;;;;83.70;32.37;;;;;;;-1.74;100.00;103059.34;5061750;28;20047;-64
2022/01/11 02:11:15;;;;;;;86.60;33.30;;;;;;;-1.81;100.00;103057.72;5061286;28;20108;-65
2022/01/11 02:13:41;;;;;;;85.77;33.77;;;;;;;-1.83;100.00;103059.19;5060402;28;20053;-65
2022/01/11 02:16:06;;;;;;;78.70;33.30;;;;;;;-1.82;100.00;103058.47;5058182;28;20468;-65
2022/01/11 02:18:31;;;;;;;78.27;33.40;;;;;;;-1.85;100.00;103053.00;5059763;28;20025;-65
2022/01/11 02:20:58;;;;;;;78.93;34.33;;;;;;;-1.85;100.00;103058.09;5055958;28;20021;-65
2022/01/11 02:23:28;;;;;;;82.20;33.80;;;;;;;-1.83;100.00;103059.19;5060148;28;20043;-63
2022/01/11 02:25:55;;;;;;;80.03;33.23;;;;;;;-1.82;100.00;103058.47;5062005;28;20348;-63
2022/01/11 02:28:23;;;;;;;75.20;34.33;;;;;;;-1.88;100.00;103062.81;5056061;28;20032;-63
2022/01/11 02:30:50;;;;;;;81.30;34.37;;;;;;;-1.90;100.00;103065.19;5059630;28;20036;-63
2022/01/11 02:33:32;;;;;;;72.63;33.23;;;;;;;-1.88;100.00;103071.34;5057950;28;20028;-63
2022/01/11 02:35:59;;;;;;;74.63;33.17;;;;;;;-1.84;100.00;103075.16;5061686;28;20031;-63
2022/01/11 02:38:25;;;;;;;73.77;34.83;;;;;;;-1.81;100.00;103078.06;5056346;28;20082;-63
2022/01/11 02:40:50;;;;;;;76.10;32.83;;;;;;;-1.83;100.00;103085.50;5060809;28;20021;-63
2022/01/11 02:43:16;;;;;;;70.10;33.93;;;;;;;-1.82;100.00;103089.84;5061046;28;20059;-63
2022/01/11 02:45:41;;;;;;;70.50;31.50;;;;;;;-1.81;100.00;103085.69;5059800;28;20067;-63
2022/01/11 02:48:07;;;;;;;76.83;33.33;;;;;;;-1.80;100.00;103087.53;5057444;28;20467;-63
2022/01/11 02:50:32;;;;;;;73.27;32.53;;;;;;;-1.81;100.00;103091.69;5058134;28;20028;-63
2022/01/11 02:52:58;;;;;;;73.17;32.73;;;;;;;-1.80;100.00;103092.63;5056203;28;20388;-64
2022/01/11 02:55:23;;;;;;;73.17;33.10;;;;;;;-1.82;100.00;103089.84;5058066;28;20038;-63
2022/01/11 02:57:48;;;;;;;74.90;35.27;;;;;;;-1.81;100.00;103088.22;5060213;28;20103;-63
2022/01/11 03:00:17;;;;;;;75.60;34.23;;;;;;;-1.79;100.00;103088.41;5056772;28;20040;-63
2022/01/11 03:02:43;;;;;;;73.73;34.00;;;;;;;-1.78;100.00;103091.13;5065860;28;20105;-63
2022/01/11 03:05:10;;;;;;;72.57;35.43;;;;;;;-1.79;100.00;103093.50;5054568;28;20024;-64
2022/01/11 03:07:37;;;;;;;69.97;34.23;;;;;;;-1.77;100.00;103107.31;5063812;28;20423;-63
2022/01/11 03:10:32;;;;;;;70.73;33.57;;;;;;;-1.76;100.00;103104.06;5054673;28;20498;-63
2022/01/11 03:13:01;;;;;;;69.07;33.57;;;;;;;-1.80;100.00;103102.78;5056348;28;20578;-63
2022/01/11 03:15:27;;;;;;;74.07;33.13;;;;;;;-1.81;100.00;103096.78;5053502;28;20028;-63
2022/01/11 03:17:52;;;;;;;66.20;31.93;;;;;;;-1.80;100.00;103100.25;5058766;28;20025;-63
2022/01/11 03:20:17;;;;;;;71.90;34.30;;;;;;;-1.78;100.00;103098.75;5057965;28;20040;-63
2022/01/11 03:22:43;;;;;;;68.67;34.07;;;;;;;-1.78;100.00;103100.41;5058225;28;20408;-63
2022/01/11 03:25:09;;;;;;;65.33;33.37;;;;;;;-1.78;100.00;103096.22;5056386;28;20052;-64
2022/01/11 03:27:34;;;;;;;67.67;32.53;;;;;;;-1.79;100.00;103096.97;5057474;28;20439;-63
2022/01/11 03:30:00;;;;;;;67.30;31.73;;;;;;;-1.83;100.00;103105.84;5063183;28;20025;-63
2022/01/11 03:32:25;;;;;;;66.10;33.03;;;;;;;-1.86;100.00;103092.78;5056690;28;20114;-63
2022/01/11 03:34:50;;;;;;;66.00;31.40;;;;;;;-1.84;100.00;103103.13;5060094;28;20492;-63
2022/01/11 03:37:18;;;;;;;67.33;32.30;;;;;;;-1.84;100.00;103090.44;5054006;28;20238;-64
2022/01/11 03:39:44;;;;;;;66.37;30.47;;;;;;;-1.83;100.00;103092.22;5059210;28;20029;-63
2022/01/11 03:42:10;;;;;;;71.93;33.10;;;;;;;-1.84;100.00;103085.34;5054190;28;20025;-63
2022/01/11 03:44:36;;;;;;;64.33;31.83;;;;;;;-1.89;100.00;103082.22;5066313;28;20039;-63
2022/01/11 03:47:02;;;;;;;60.87;31.67;;;;;;;-1.88;100.00;103084.06;5051625;28;20033;-63
2022/01/11 03:49:28;;;;;;;63.60;33.03;;;;;;;-1.86;100.00;103086.78;5061721;28;20098;-63
2022/01/11 03:51:53;;;;;;;70.10;34.63;;;;;;;-1.88;100.00;103083.16;5059076;28;20385;-64
2022/01/11 03:54:25;;;;;;;67.60;33.80;;;;;;;-1.86;100.00;103091.88;5064284;28;20027;-63
2022/01/11 03:56:51;;;;;;;70.03;32.93;;;;;;;-1.84;100.00;103095.50;5055813;28;20021;-63
2022/01/11 03:59:17;;;;;;;66.30;32.77;;;;;;;-1.86;100.00;103096.97;5057273;28;20029;-63
2022/01/11 04:01:42;;;;;;;66.97;33.53;;;;;;;-1.83;100.00;103097.31;5064814;28;20063;-63
2022/01/11 04:04:12;;;;;;;69.13;34.63;;;;;;;-1.86;100.00;103102.03;5056006;28;20094;-64
2022/01/11 04:06:38;;;;;;;69.17;33.30;;;;;;;-1.88;100.00;103106.94;5064512;28;20028;-63
2022/01/11 04:09:08;;;;;;;64.37;32.87;;;;;;;-1.88;100.00;103099.31;5054278;28;20131;-63
2022/01/11 04:11:34;;;;;;;70.17;34.60;;;;;;;-1.92;100.00;103093.69;5058583;28;20408;-65
2022/01/11 04:13:59;;;;;;;67.93;34.20;;;;;;;-1.90;100.00;103095.69;5053369;28;20053;-63
2022/01/11 04:16:25;;;;;;;68.67;34.20;;;;;;;-1.88;100.00;103114.56;5063312;28;20040;-63
2022/01/11 04:18:50;;;;;;;66.07;33.10;;;;;;;-1.88;100.00;103103.47;5057328;28;20029;-63
2022/01/11 04:21:15;;;;;;;72.43;33.83;;;;;;;-1.92;100.00;103102.22;5055585;28;20128;-63
2022/01/11 04:23:41;;;;;;;76.67;34.63;;;;;;;-1.93;100.00;103108.03;5064795;28;20060;-63
2022/01/11 04:26:07;;;;;;;66.67;33.20;;;;;;;-1.94;100.00;103109.66;5051223;28;20546;-63
2022/01/11 04:28:32;;;;;;;65.47;31.33;;;;;;;-1.91;100.00;103110.75;5061271;28;20025;-63
2022/01/11 04:30:59;;;;;;;63.23;32.17;;;;;;;-1.94;100.00;103109.66;5056857;28;20074;-63
2022/01/11 04:33:26;;;;;;;64.67;32.70;;;;;;;-1.94;100.00;103118.91;5059519;28;20025;-63
2022/01/11 04:35:52;;;;;;;65.17;32.23;;;;;;;-1.96;100.00;103116.19;5055329;28;20503;-64
2022/01/11 04:38:19;;;;;;;64.97;34.03;;;;;;;-1.97;100.00;103113.47;5057438;28;20048;-63
2022/01/11 04:40:45;;;;;;;72.13;35.63;;;;;;;-1.98;100.00;103112.53;5053792;28;20088;-63
2022/01/11 04:43:10;;;;;;;74.17;35.57;;;;;;;-1.98;100.00;103116.75;5058415;28;20020;-64
2022/01/11 04:45:36;;;;;;;71.27;35.10;;;;;;;-2.01;100.00;103122.34;5061092;28;20032;-63
2022/01/11 04:48:01;;;;;;;71.70;33.40;;;;;;;-1.99;100.00;103126.00;5054154;28;20063;-64
2022/01/11 04:50:27;;;;;;;77.60;36.67;;;;;;;-2.00;100.00;103124.19;5057252;28;20036;-63
2022/01/11 04:52:53;;;;;;;77.13;35.03;;;;;;;-2.03;100.00;103123.78;5053483;28;20404;-63
2022/01/11 04:55:18;;;;;;;70.77;34.93;;;;;;;-2.02;100.00;103114.56;5060791;28;20024;-63
2022/01/11 04:57:44;;;;;;;82.50;37.27;;;;;;;-2.07;100.00;103114.00;5051696;28;20074;-63
2022/01/11 05:00:11;;;;;;;85.23;37.77;;;;;;;-2.07;100.00;103112.34;5058719;28;20481;-64
2022/01/11 05:02:37;;;;;;;84.90;39.60;;;;;;;-2.11;100.00;103105.09;5056064;28;20024;-63
2022/01/11 05:05:03;;;;;;;87.47;39.47;;;;;;;-2.09;100.00;103107.81;5059734;28;20116;-63
2022/01/11 05:07:28;;;;;;;87.03;39.60;;;;;;;-2.10;100.00;103103.44;5055158;28;20025;-63
2022/01/11 05:09:54;;;;;;;87.67;38.50;;;;;;;-2.13;100.00;103110.72;5063055;28;20176;-63
2022/01/11 05:12:20;;;;;;;83.87;37.57;;;;;;;-2.13;100.00;103115.81;5061630;28;20021;-63
2022/01/11 05:14:45;;;;;;;80.30;36.27;;;;;;;-2.17;100.00;103115.44;5061829;28;20032;-63
2022/01/11 05:17:10;;;;;;;84.73;39.30;;;;;;;-2.20;100.00;103107.44;5059677;28;20028;-63
2022/01/11 05:19:36;;;;;;;88.80;38.73;;;;;;;-2.20;100.00;103107.44;5061768;28;20024;-63
2022/01/11 05:22:01;;;;;;;84.97;39.50;;;;;;;-2.22;100.00;103110.53;5057961;28;20107;-63
2022/01/11 05:24:26;;;;;;;79.30;37.63;;;;;;;-2.23;100.00;103108.72;5058774;28;20608;-63
2022/01/11 05:26:53;;;;;;;82.03;38.43;;;;;;;-2.24;100.00;103107.78;5063324;28;20066;-63
2022/01/11 05:29:18;;;;;;;81.60;37.30;;;;;;;-2.28;100.00;103109.78;5058288;28;20117;-64
2022/01/11 05:31:43;;;;;;;84.93;39.10;;;;;;;-2.30;100.00;103104.50;5062101;28;20435;-63
2022/01/11 05:34:09;;;;;;;77.83;38.07;;;;;;;-2.29;100.00;103103.78;5054005;28;20139;-64
2022/01/11 05:36:34;;;;;;;90.13;41.10;;;;;;;-2.32;100.00;103095.81;5065680;28;20171;-63
2022/01/11 05:38:59;;;;;;;80.80;39.03;;;;;;;-2.35;100.00;103098.88;5054763;28;20031;-64
2022/01/11 05:41:25;;;;;;;84.77;39.03;;;;;;;-2.38;100.00;103100.13;5062804;28;20151;-63
2022/01/11 05:43:50;;;;;;;81.60;39.37;;;;;;;-2.37;100.00;103099.41;5058975;28;20051;-63
2022/01/11 05:46:15;;;;;;;84.67;37.67;;;;;;;-2.39;100.00;103103.41;5065497;28;20036;-63
2022/01/11 05:48:44;;;;;;;84.57;39.40;;;;;;;-2.39;100.00;103100.88;5058356;28;20108;-63
2022/01/11 05:51:10;;;;;;;85.40;38.23;;;;;;;-2.39;100.00;103103.41;5061300;28;20036;-63
2022/01/11 05:53:36;;;;;;;90.00;39.10;;;;;;;-2.39;100.00;103113.56;5056247;28;20036;-63
2022/01/11 05:56:01;;;;;;;75.93;35.53;;;;;;;-2.41;100.00;103116.81;5064345;28;20037;-64
2022/01/11 05:58:27;;;;;;;75.73;36.77;;;;;;;-2.43;100.00;103123.34;5061222;28;20021;-63
2022/01/11 06:00:52;;;;;;;81.00;37.63;;;;;;;-2.42;100.00;103127.72;5057403;28;20095;-64
2022/01/11 06:03:17;;;;;;;76.37;36.33;;;;;;;-2.42;100.00;103126.78;5060715;28;20512;-64
2022/01/11 06:05:43;;;;;;;81.53;37.27;;;;;;;-2.46;100.00;103128.06;5058465;28;20046;-63
2022/01/11 06:08:08;;;;;;;83.00;37.63;;;;;;;-2.48;100.00;103126.94;5064297;28;20119;-63
2022/01/11 06:10:34;;;;;;;74.97;36.23;;;;;;;-2.48;100.00;103132.03;5054784;28;20373;-64
2022/01/11 06:12:59;;;;;;;76.43;35.77;;;;;;;-2.46;100.00;103140.75;5062140;28;20528;-63
2022/01/11 06:15:26;;;;;;;70.77;35.40;;;;;;;-2.47;100.00;103143.09;5060526;28;20058;-63
2022/01/11 06:17:51;;;;;;;75.70;36.27;;;;;;;-2.47;100.00;103150.72;5059330;28;20031;-63
2022/01/11 06:20:17;;;;;;;71.87;34.37;;;;;;;-2.47;100.00;103160.88;5055851;28;20036;-63
2022/01/11 06:22:42;;;;;;;71.07;34.87;;;;;;;-2.49;100.00;103165.78;5064811;28;20035;-63
2022/01/11 06:25:09;;;;;;;76.10;37.53;;;;;;;-2.49;100.00;103163.25;5065629;28;20029;-63
2022/01/11 06:27:39;;;;;;;71.07;35.10;;;;;;;-2.51;100.00;103169.75;5056287;28;20104;-63
2022/01/11 06:30:09;;;;;;;70.28;34.85;;;;;;;-2.52;100.00;103175.56;5061642;28;20059;-64
2022/01/11 06:32:34;;;;;;;67.53;34.50;;;;;;;-2.52;100.00;103175.56;5054593;28;20217;-63
2022/01/11 06:35:00;;;;;;;65.70;33.73;;;;;;;-2.57;100.00;103176.59;5063760;28;20024;-63
2022/01/11 06:37:26;;;;;;;69.07;33.33;;;;;;;-2.56;100.00;103170.81;5056372;28;20388;-64
2022/01/11 06:39:51;;;;;;;75.50;36.37;;;;;;;-2.56;100.00;103176.81;5063094;28;20050;-63
2022/01/11 06:42:17;;;;;;;62.10;32.93;;;;;;;-2.60;100.00;103172.06;5051694;28;20029;-63
2022/01/11 06:44:43;;;;;;;67.77;33.57;;;;;;;-2.59;100.00;103183.16;5061317;28;20083;-64
2022/01/11 06:47:08;;;;;;;72.30;36.27;;;;;;;-2.63;100.00;103181.88;5058705;28;20051;-64
2022/01/11 06:49:34;;;;;;;59.27;33.30;;;;;;;-2.64;100.00;103179.13;5062433;28;20017;-64
2022/01/11 06:51:59;;;;;;;67.37;34.20;;;;;;;-2.67;100.00;103179.66;5053824;28;20017;-64
2022/01/11 06:54:25;;;;;;;70.03;35.27;;;;;;;-2.66;100.00;103191.63;5063530;28;20115;-63
2022/01/11 06:56:50;;;;;;;62.40;32.30;;;;;;;-2.69;100.00;103179.47;5056794;28;20058;-63
2022/01/11 06:59:15;;;;;;;67.10;32.83;;;;;;;-2.68;100.00;103185.47;5061778;28;20024;-64
2022/01/11 07:01:41;;;;;;;61.27;32.23;;;;;;;-2.69;100.00;103183.63;5054982;28;20068;-64
2022/01/11 07:04:06;;;;;;;67.23;34.87;;;;;;;-2.71;100.00;103191.06;5053269;28;20283;-64
2022/01/11 07:06:31;;;;;;;67.47;33.57;;;;;;;-2.72;100.00;103191.78;5067616;28;20028;-63
2022/01/11 07:08:57;;;;;;;61.87;32.23;;;;;;;-2.73;100.00;103195.03;5062457;28;20028;-64
2022/01/11 07:11:23;;;;;;;64.87;33.83;;;;;;;-2.73;100.00;103197.56;5069814;28;20049;-63
2022/01/11 07:13:49;;;;;;;67.57;34.03;;;;;;;-2.73;100.00;103197.56;5068971;28;20023;-64
2022/01/11 07:16:14;;;;;;;63.40;33.07;;;;;;;-2.74;100.00;103203.38;5069320;28;20028;-64
2022/01/11 07:18:39;;;;;;;59.77;31.83;;;;;;;-2.73;100.00;103202.66;5069545;28;20025;-64
2022/01/11 07:21:05;;;;;;;65.70;34.37;;;;;;;-2.74;100.00;103203.38;5069415;28;20032;-64
2022/01/11 07:23:30;;;;;;;63.93;33.10;;;;;;;-2.76;100.00;103212.44;5068488;28;20029;-63
2022/01/11 07:25:55;;;;;;;60.90;33.60;;;;;;;-2.79;100.00;103210.41;5059960;28;20087;-64
2022/01/11 07:28:21;;;;;;;64.33;33.87;;;;;;;-2.79;100.00;103212.06;5061948;28;20496;-64
2022/01/11 07:30:46;;;;;;;60.67;33.47;;;;;;;-2.77;100.00;103223.31;5062225;28;20024;-63
2022/01/11 07:33:11;;;;;;;61.93;33.53;;;;;;;-2.78;100.00;103216.41;5068293;28;20115;-63
2022/01/11 07:35:36;;;;;;;63.23;32.60;;;;;;;-2.80;100.00;103222.91;5063873;28;20024;-63
2022/01/11 07:38:02;;;;;;;57.10;32.40;;;;;;;-2.77;100.00;103228.41;5069217;28;20111;-63
2022/01/11 07:40:27;;;;;;;57.03;31.03;;;;;;;-2.77;100.00;103228.41;5069449;28;20320;-63
2022/01/11 07:42:53;;;;;;;58.63;32.70;;;;;;;-2.79;100.00;103228.19;5069582;28;20082;-64
2022/01/11 07:45:19;;;;;;;58.13;33.03;;;;;;;-2.75;100.00;103226.03;5063419;28;20024;-65
2022/01/11 07:47:44;;;;;;;61.00;32.33;;;;;;;-2.76;100.00;103225.13;5069277;28;20055;-64
2022/01/11 07:50:11;;;;;;;58.17;31.60;;;;;;;-2.77;100.00;103234.34;5061428;28;20090;-64
2022/01/11 07:52:36;;;;;;;54.10;30.63;;;;;;;-2.74;100.00;103231.31;5054021;28;20101;-64
2022/01/11 07:55:01;;;;;;;56.47;32.70;;;;;;;-2.70;100.00;103241.09;5067866;28;20056;-64
2022/01/11 07:57:27;;;;;;;58.83;31.90;;;;;;;-2.68;100.00;103239.66;5069268;28;20024;-64
2022/01/11 07:59:53;;;;;;;59.67;32.03;;;;;;;-2.64;100.00;103237.53;5058821;28;20048;-64
2022/01/11 08:02:19;;;;;;;55.07;30.70;;;;;;;-2.62;100.00;103238.63;5048984;28;20108;-63
2022/01/11 08:04:44;;;;;;;54.23;31.20;;;;;;;-2.59;100.00;103231.41;5048785;28;20548;-64
2022/01/11 08:07:10;;;;;;;52.70;30.23;;;;;;;-2.57;100.00;103233.41;5048026;28;20495;-63
2022/01/11 08:09:36;;;;;;;54.17;31.30;;;;;;;-2.53;100.00;103239.75;5057882;28;20718;-65
2022/01/11 08:12:02;;;;;;;49.73;28.87;;;;;;;-2.52;100.00;103241.59;5064480;28;20020;-65
2022/01/11 08:14:29;;;;;;;49.40;28.60;;;;;;;-2.48;100.00;103245.44;5069094;28;20404;-65
2022/01/11 08:16:55;;;;;;;47.03;27.70;;;;;;;-2.43;100.00;103236.75;5069408;28;20163;-64
2022/01/11 08:19:25;;;;;;;49.60;28.73;;;;;;;-2.42;100.00;103233.47;5067235;28;20502;-64
2022/01/11 08:21:54;;;;;;;45.37;28.17;;;;;;;-2.41;100.00;103241.28;5054413;28;20074;-64
2022/01/11 08:24:22;;;;;;;44.37;27.57;;;;;;;-2.34;100.00;103247.13;5051997;28;20016;-64
2022/01/11 08:26:47;;;;;;;40.77;26.10;;;;;;;-2.30;100.00;103246.78;5054354;28;20315;-64
2022/01/11 08:29:14;;;;;;;40.33;26.37;;;;;;;-2.30;100.00;103250.22;5053146;28;20412;-64
2022/01/11 08:31:39;;;;;;;39.77;25.67;;;;;;;-2.23;100.00;103246.81;5059336;28;20095;-64
2022/01/11 08:34:11;;;;;;;38.13;24.57;;;;;;;-2.20;100.00;103243.75;5060145;28;20914;-64
2022/01/11 08:36:37;;;;;;;34.90;24.13;;;;;;;-2.14;100.00;103241.06;5053772;28;20174;-64
2022/01/11 08:39:02;;;;;;;40.77;24.40;;;;;;;-2.05;100.00;103237.06;5057728;28;20024;-64
2022/01/11 08:41:28;;;;;;;36.57;24.83;;;;;;;-1.99;100.00;103236.91;5055435;28;20043;-64
2022/01/11 08:43:53;;;;;;;34.03;22.90;;;;;;;-1.89;100.00;103241.50;5060604;28;20023;-65
2022/01/11 08:46:18;;;;;;;33.47;23.27;;;;;;;-1.83;100.00;103244.78;5055532;28;20020;-64
2022/01/11 08:48:44;;;;;;;33.80;22.93;;;;;;;-1.79;100.00;103234.25;5065569;28;20111;-65
2022/01/11 08:51:09;;;;;;;35.77;23.37;;;;;;;-1.71;100.00;103228.44;5079471;28;20508;-64
2022/01/11 08:53:34;;;;;;;33.73;21.93;;;;;;;-1.57;100.00;103234.31;5056915;28;20329;-65
2022/01/11 08:56:00;;;;;;;32.50;22.47;;;;;;;-1.37;100.00;103234.13;5054822;28;20221;-64
2022/01/11 08:58:25;;;;;;;34.83;23.47;;;;;;;-1.22;100.00;103235.06;5069287;28;20032;-63
2022/01/11 09:00:51;;;;;;;31.13;22.10;;;;;;;-1.05;100.00;103240.31;5065877;28;20477;-65
2022/01/11 09:03:17;;;;;;;31.47;22.23;;;;;;;-0.97;100.00;103245.59;5052033;28;20029;-65
2022/01/11 09:05:43;;;;;;;32.00;22.20;;;;;;;-0.90;100.00;103241.22;5057708;28;20081;-65
2022/01/11 09:08:10;;;;;;;33.17;20.47;;;;;;;-0.87;100.00;103246.69;5065009;28;20427;-64
2022/01/11 09:10:35;;;;;;;31.57;21.07;;;;;;;-0.82;100.00;103259.94;5054696;28;20048;-65
2022/01/11 09:13:01;;;;;;;27.03;20.73;;;;;;;-0.78;100.00;103268.13;5051185;28;20017;-64
2022/01/11 09:15:28;;;;;;;31.63;19.93;;;;;;;-0.79;100.00;103265.41;5052309;28;20495;-64
2022/01/11 09:17:53;;;;;;;27.97;20.03;;;;;;;-0.76;100.00;103269.22;5064259;28;20472;-65
2022/01/11 09:20:18;;;;;;;26.00;19.83;;;;;;;-0.69;100.00;103275.03;5066897;28;20063;-65
2022/01/11 09:22:44;;;;;;;28.93;19.67;;;;;;;-0.66;100.00;103270.28;5052960;28;20078;-64
2022/01/11 09:25:11;;;;;;;31.23;20.23;;;;;;;-0.61;100.00;103264.09;5051930;28;20108;-64
2022/01/11 09:27:37;;;;;;;31.40;19.13;;;;;;;-0.56;100.00;103265.56;5066095;28;20028;-65
2022/01/11 09:30:08;;;;;;;30.00;18.73;;;;;;;-0.53;100.00;103271.00;5060909;28;20017;-64
2022/01/11 09:32:34;;;;;;;25.85;18.80;;;;;;;-0.52;100.00;103271.91;5068173;28;20432;-65
2022/01/11 09:35:00;;;;;;;24.70;18.93;;;;;;;-0.49;100.00;103270.59;5062961;28;20035;-64
2022/01/11 09:37:25;;;;;;;23.70;17.53;;;;;;;-0.43;100.00;103269.53;5071343;28;20478;-64
2022/01/11 09:39:51;;;;;;;23.00;17.57;;;;;;;-0.37;100.00;103268.59;5060977;28;20115;-64
2022/01/11 09:42:17;;;;;;;24.10;17.80;;;;;;;-0.31;100.00;103270.94;5061664;28;20024;-65
2022/01/11 09:44:42;;;;;;;24.27;17.70;;;;;;;-0.26;100.00;103272.38;5060586;28;20047;-65
2022/01/11 09:47:12;;;;;;;24.07;17.73;;;;;;;-0.18;100.00;103277.47;5054625;28;20025;-64
2022/01/11 09:49:38;;;;;;;20.90;16.80;;;;;;;-0.07;100.00;103277.03;5062779;28;20469;-64
2022/01/11 09:52:07;;;;;;;22.00;17.13;;;;;;;0.01;100.00;103280.47;5067914;28;20500;-65
2022/01/11 09:54:35;;;;;;;21.20;16.10;;;;;;;0.08;100.00;103279.53;5069977;28;20033;-65
2022/01/11 09:57:01;;;;;;;23.07;16.47;;;;;;;0.16;100.00;103286.44;5061326;28;20020;-64
2022/01/11 09:59:26;;;;;;;22.03;16.40;;;;;;;0.22;100.00;103283.66;5063951;28;20437;-64
2022/01/11 10:01:51;;;;;;;21.97;15.83;;;;;;;0.32;100.00;103288.16;5056684;28;20484;-65
2022/01/11 10:04:18;;;;;;;20.17;16.47;;;;;;;0.34;100.00;103286.69;5066312;28;20032;-64
2022/01/11 10:06:56;;;;;;;20.80;15.37;;;;;;;0.34;100.00;103289.25;5070413;28;20021;-64
2022/01/11 10:09:22;;;;;;;17.83;13.37;;;;;;;0.40;100.00;103287.38;5058836;28;20043;-65
2022/01/11 10:11:53;;;;;;;20.67;14.73;;;;;;;0.49;100.00;103291.72;5066110;28;20462;-64
2022/01/11 10:14:25;;;;;;;22.08;15.20;;;;;;;0.59;100.00;103297.13;5069500;28;20044;-64
2022/01/11 10:17:08;;;;;;;21.23;14.80;;;;;;;0.66;100.00;103291.06;5067332;28;20037;-65
2022/01/11 10:19:35;;;;;;;19.00;14.53;;;;;;;0.70;100.00;103295.78;5067031;28;20035;-65
2022/01/11 10:22:06;;;;;;;18.00;13.80;;;;;;;0.75;100.00;103293.72;5055302;28;20614;-64
2022/01/11 10:24:32;;;;;;;;;;;;;;;0.77;100.00;103289.69;5051640;28;20071;-64
2022/01/11 10:27:11;;;;;;;17.40;12.70;;;;;;;0.79;100.00;103286.56;5056113;28;19916;-64
2022/01/11 10:29:40;;;;;;;16.77;13.03;;;;;;;0.82;100.00;103288.56;5069885;28;20115;-64
2022/01/11 10:32:13;;;;;;;19.57;13.80;;;;;;;0.82;100.00;103280.91;5065688;28;20067;-64
2022/01/11 10:34:39;;;;;;;19.70;14.00;;;;;;;0.84;100.00;103282.00;5068582;28;20170;-64
2022/01/11 10:37:06;;;;;;;19.47;14.77;;;;;;;0.87;100.00;103277.22;5058936;28;20032;-64
2022/01/11 10:39:40;;;;;;;18.67;13.40;;;;;;;0.89;100.00;103275.75;5064793;28;20029;-65
2022/01/11 10:42:18;;;;;;;17.00;14.00;;;;;;;0.94;100.00;103282.25;5054451;28;20056;-64
2022/01/11 10:44:59;;;;;;;17.07;13.23;;;;;;;0.98;100.00;103285.16;5065562;28;20029;-64
2022/01/11 10:47:34;;;;;;;18.80;14.00;;;;;;;1.03;100.00;103289.13;5051840;28;20524;-64
2022/01/11 10:50:15;;;;;;;17.17;12.97;;;;;;;1.06;100.00;103286.94;5053693;28;20020;-64
2022/01/11 10:52:42;;;;;;;;;;;;;;;1.10;100.00;103291.63;5059511;28;20077;-64
2022/01/11 10:55:15;;;;;;;16.23;12.20;;;;;;;1.14;100.00;103298.88;5070114;28;19916;-65
2022/01/11 10:57:42;;;;;;;18.93;12.80;;;;;;;1.18;100.00;103288.28;5057168;28;20386;-64
2022/01/11 11:00:10;;;;;;;19.17;12.83;;;;;;;1.26;100.00;103290.78;5056916;28;20442;-64
2022/01/11 11:02:36;;;;;;;15.63;13.37;;;;;;;1.32;100.00;103293.97;5054985;28;20032;-64